Aaron Pulisic

Scout - Columbus Crew
3 Dez 2028
Sonntag
Verarbeitung

Persönlichkeit

Anpassungsfähigkeit (10) Ehrgeiz (15) Kontroverse (1) Loyalität (14) Druck (13) Professionalität (4) Fairness (19) Temperament (10)

Profil

Trainerstil Demokratisch
Lizenz Kontinentale A
Entschlossenheit 5
Menschenführung 12
Motivation 5
Disziplin 12
Arbeitszufriedenheit
100%
Ermüdung
0%
Rolle Scout
Gehalt 85.9K p/W
Vertrag 14.03.2030

Leistung

Verhalten Gut
Trainingseffektivität
43%
Spielerentwicklung
55%
Verletzungsprävention
60%
Taktische Umsetzung
35%

Letzte Ereignisse

Nahm an einer Scouting-Besprechung teil jetzt
Nahm an einer Scouting-Besprechung teil jetzt
Empfahl ein Transferziel jetzt
Spieler begutachtet jetzt
Empfahl ein Transferziel 7T her
Spieler begutachtet 7T her
Spieler begutachtet 7T her
Spieler begutachtet 7T her

Aktuell beobachtet

204
Spieler Verein Status Fähigkeit Vertrauen Beobachtet Zuletzt beobachtet Letzte Stimme
Luis Otávio Orlando City Aktiv 109 / 119 40% 5 01.12.2028 -
Peyton Miller New England Revolution Aktiv 110 / 115 40% 4 01.12.2028 -
Estanislao López Colón Aktiv 99 / 91 40% 4 01.12.2028 -
Máximo Munarriz San Telmo Aktiv 99 / 115 40% 2 29.11.2028 -
Andrija Bulatović Chamois Niortais Aktiv 129 / 137 40% 2 29.11.2028 -
Calvin Diakite Chesterfield Aktiv 91 / 99 40% 3 29.11.2028 -
Louis Page Leicester City Aktiv 128 / 141 40% 5 28.11.2028 -
Celías Ingenthron Platense Aktiv 123 / 120 40% 3 28.11.2028 -
Ivan Borges Defensores Aktiv 91 / 92 40% 2 28.11.2028 -
Lwandiso Radebe Ajax Cape Town Aktiv 113 / 115 40% 7 26.11.2028 -
Alessandro Nunziante Mantova Aktiv 125 / 132 40% 2 26.11.2028 -
Doug Lukjanciks Everton Aktiv 98 / 101 40% 1 26.11.2028 -
Riquelme Thompson-Jones Accrington Stanley Aktiv 110 / 118 40% 2 25.11.2028 -
Noah Markmann Esbjerg Aktiv 119 / 123 40% 2 25.11.2028 -
Felipe Varela Trujillanos Aktiv 82 / 102 40% 2 25.11.2028 -
Abubakar Adams Aduana Stars Aktiv 96 / 87 40% 4 20.11.2028 -
Ezra Mayers West Ham United Aktiv 134 / 135 40% 3 20.11.2028 -
Farren Doran Tottenham Aktiv 106 / 104 40% 2 18.11.2028 -
Ethan Gold Crewe Alexandra Aktiv 97 / 109 40% 1 18.11.2028 -
Joel Ezra Enyimba Aktiv 96 / 102 40% 11 17.11.2028 -
Jack Austin Chelsea Aktiv 101 / 109 40% 2 17.11.2028 -
Jack Shorrock Port Vale Aktiv 110 / 113 40% 1 17.11.2028 -
Malte Hallin GIF Sundsvall Aktiv 89 / 94 40% 1 17.11.2028 -
Jack Porter Port Vale Aktiv 119 / 122 40% 1 17.11.2028 -
Takalani Mazhamba Kaizer Chiefs Aktiv 114 / 105 40% 1 17.11.2028 -
Chris Rigg West Ham United Aktiv 136 / 146 40% 5 15.11.2028 -
Marko Zebić Lucko Aktiv 125 / 117 40% 1 15.11.2028 -
Giovanni Leoni Lincoln City Aktiv 145 / 150 40% 10 14.11.2028 -
Mateo Faure BATE Aktiv 94 / 94 40% 2 12.11.2028 -
Rene Hrvatin Istra 1961 Aktiv 112 / 115 40% 1 12.11.2028 -
Alastair Graham Nottingham Forest Aktiv 106 / 117 40% 2 11.11.2028 -
Matt Bagot Fulham Aktiv 82 / 100 40% 1 11.11.2028 -
Trey Nyoni Rotherham United Aktiv 146 / 153 40% 10 10.11.2028 -
Gideon Manaseh Ikorodu City Aktiv 81 / 96 40% 7 10.11.2028 -
Divine Onourah Atlas Aktiv 98 / 95 40% 2 10.11.2028 -
Jack Allan Aston Villa Aktiv 96 / 95 40% 2 10.11.2028 -
Josh King Newcastle United Aktiv 146 / 157 40% 1 10.11.2028 -
Owen Asemota Aston Villa Aktiv 105 / 112 40% 5 07.11.2028 -
Callan McKenna Derby County Aktiv 118 / 112 40% 2 07.11.2028 -
Oliver Lloyd Middlesbrough Aktiv 99 / 99 40% 2 05.11.2028 -
Francisco Machis Llaneros Aktiv 99 / 99 40% 4 04.11.2028 -
Ronan Kpakio AC Milan Aktiv 127 / 137 40% 6 03.11.2028 -
Finley Grigg Manchester City Aktiv 102 / 112 40% 1 02.11.2028 -
Liam Doyle Brighton Aktiv 85 / 101 40% 1 02.11.2028 -
Sebastian Rodriguez Houston Dynamo Aktiv 114 / 132 40% 4 01.11.2028 -
Dylan Moody Cheltenham Town Aktiv 121 / 129 40% 2 01.11.2028 -
Finley Taylor Blackburn Rovers Aktiv 91 / 93 40% 1 01.11.2028 -
Owen Grainger Nottingham Forest Aktiv 85 / 92 40% 1 01.11.2028 -
Moses Sesay Southampton Aktiv 109 / 122 40% 1 30.10.2028 -
Nicholas Michalski Northampton Town Aktiv 111 / 125 40% 2 28.10.2028 -
Blake Irow Tottenham Aktiv 103 / 109 40% 2 28.10.2028 -
Toby Bell Chelsea Aktiv 92 / 108 40% 1 28.10.2028 -
Tyler Fletcher Rotherham United Aktiv 112 / 127 40% 6 26.10.2028 -
Diego León Rotherham United Aktiv 127 / 135 40% 3 26.10.2028 -
Tobías Ramírez River Plate Aktiv 144 / 131 40% 4 25.10.2028 -
Óscar Hinojosa Metropolitanos Aktiv 78 / 86 40% 1 25.10.2028 -
Aytor Herrera Mineros de Guayana Aktiv 100 / 86 40% 3 24.10.2028 -
Tiago Gordillo San Miguel Aktiv 82 / 87 40% 2 23.10.2028 -
Sam Proctor Salford City Aktiv 119 / 125 40% 1 23.10.2028 -
Azizbek To'lqinbekov Bunyodkor Aktiv 95 / 117 40% 1 23.10.2028 -
Somtochuwku Ezenabo Kwara United Aktiv 81 / 96 40% 2 22.10.2028 -
Alejandro Tapia Central Norte Aktiv 79 / 84 40% 2 20.10.2028 -
Rhys Chadwick Blackpool Aktiv 110 / 119 40% 3 18.10.2028 -
Jack Thompson Derby County Aktiv 98 / 105 40% 1 17.10.2028 -
Jim Thwaites Manchester United Aktiv 122 / 130 40% 1 17.10.2028 -
Joseph Cowan Sunderland Aktiv 94 / 104 40% 1 13.10.2028 -
Gerardo Díaz San Martín SJ Aktiv 110 / 113 40% 1 13.10.2028 -
Agustín Albrini Independiente Rivadavia Aktiv 86 / 103 40% 1 13.10.2028 -
Harrison Armstrong Ipswich Town Aktiv 137 / 146 40% 1 09.10.2028 -
Bailey Hall Liverpool Aktiv 93 / 95 40% 2 07.10.2028 -
Lehlogonolo Mohlabine Mamelodi Sundowns Aktiv 96 / 104 40% 1 07.10.2028 -
Charlie Warren Queens Park Rangers Aktiv 102 / 99 40% 1 06.10.2028 -
Honest Ahanor Atalanta Aktiv 134 / 144 40% 3 05.10.2028 -
Joachim Kayi Sanda Southampton Aktiv 119 / 134 40% 3 05.10.2028 -
Kiyani Zeggen AZ Aktiv 144 / 147 40% 1 03.10.2028 -
Finley Hooper West Ham United Aktiv 98 / 97 40% 1 03.10.2028 -
Christos Mouzakitis Hull City Aktiv 133 / 150 40% 6 16.09.2028 -
Ayden Heaven Portsmouth Aktiv 146 / 160 40% 4 15.09.2028 -
Lucas Camejo River Plate Aktiv 87 / 99 40% 4 11.09.2028 -
Bade Aluko Leicester City Aktiv 127 / 127 40% 1 09.09.2028 -
Hosea Michael Remo Stars Aktiv 89 / 86 40% 2 06.09.2028 -
Aboubacar Meïté Afrique Foot Elite Aktiv 96 / 92 40% 1 05.09.2028 -
Onyeuche Ujunwa Ikorodu City Aktiv 80 / 90 40% 2 04.09.2028 -
Jan Cedilnik Chikhura Aktiv 77 / 83 40% 1 04.09.2028 -
Bahodir Halilov Nasaf Aktiv 90 / 99 40% 1 30.08.2028 -
Lautaro Dufur Juventud Aktiv 104 / 107 40% 1 25.08.2028 -
Thijs Kraaijeveld USM Alger Aktiv 138 / 139 40% 1 17.08.2028 -
Darwin Pérez Metropolitanos Aktiv 90 / 94 40% 1 17.08.2028 -
Musa Danjuma Umraniyespor Aktiv 90 / 119 40% 1 10.08.2028 -
Augusto Bando Ascoli Aktiv 119 / 120 40% 1 08.08.2028 -
Federico Matarán Giana Erminio Aktiv 114 / 122 40% 1 07.08.2028 -
Siyabonga Hlatshwayo Bloemfontein Celtic Aktiv 84 / 111 40% 1 31.07.2028 -
Puso Dithejane Chicago Fire Aktiv 108 / 118 65% 1 14.07.2028 Befürworten
Lamine Bèye Portimonense Aktiv 107 / 123 40% 1 07.07.2028 -
Peter Shalulile Mamelodi Sundowns Aktiv 140 / 130 40% 1 12.02.2028 -
William Osula Wrexham Aktiv 141 / 130 40% 1 12.02.2028 -
Rodrigo Muniz Fulham Aktiv 147 / 148 40% 1 12.02.2028 -
Fábio Carvalho Brentford Aktiv 151 / 145 40% 2 11.02.2028 -
Mohamed-Ali Cho Hull City Aktiv 139 / 140 40% 1 11.02.2028 -
Archie Gray Southampton Aktiv 157 / 150 40% 2 10.02.2028 -
Josh Acheampong Everton Aktiv 144 / 141 40% 2 10.02.2028 -
Bongani Khune SuperSport United Aktiv 118 / 138 40% 2 09.02.2028 -
Liel Abada Inter Miami CF Aktiv 138 / 133 40% 1 09.02.2028 -
Esquerdinha Notts County Aktiv 117 / 128 40% 3 07.02.2028 -
Zane Albarus Shrewsbury Town Aktiv 107 / 107 40% 3 03.01.2028 -
Matias Siltanen Malmo FF Aktiv 116 / 127 40% 5 01.01.2028 -
Caleb Yirenkyi Coventry City Aktiv 147 / 144 40% 1 15.12.2027 -
David Damboama El-Kanemi Warriors Aktiv 86 / 85 40% 1 12.12.2027 -
Charlie Gray Fleetwood Town Aktiv 102 / 104 40% 1 11.12.2027 -
Josh Nichols Oldham Athletic Aktiv 123 / 124 40% 2 09.12.2027 -
Colin Guske Orlando City Aktiv 84 / 96 40% 1 19.11.2027 -
Godwin Oham Warri Wolves Aktiv 74 / 100 40% 2 11.11.2027 -
Daniel Idoko Ikorodu City Aktiv 96 / 103 40% 1 08.11.2027 -
Olaniyi Saheed Kwara United Aktiv 89 / 109 40% 1 08.11.2027 -
Victor Hernandez Santa Fe Aktiv 134 / 133 40% 2 01.11.2027 -
Lucas Bergvall Tottenham Aktiv 145 / 153 40% 2 18.10.2027 -
Malick Yalcouyé Brighton Aktiv 135 / 130 40% 1 06.10.2027 -
Sebastian Jensen Brighton Aktiv 98 / 99 40% 1 06.09.2027 -
Carlos Nemocón Santa Fe Aktiv 93 / 103 40% 1 06.09.2027 -
Riley Owen Stevenage Aktiv 112 / 106 40% 1 07.07.2027 -
Fran Vieites Walsall Aktiv 114 / 116 40% 1 22.02.2027 -
Kyle Wootton Stockport County Aktiv 128 / 116 40% 1 12.02.2027 -
Yousef Salech Cardiff City Aktiv 134 / 126 40% 1 12.02.2027 -
Tyrese Campbell Sheffield United Aktiv 132 / 124 40% 1 11.02.2027 Mehr Infos nötig
Patrick Agyemang Derby County Aktiv 122 / 124 40% 1 10.02.2027 -
James Trafford Leeds United Aktiv 137 / 145 40% 1 10.02.2027 -
Monty Batlhabane Polokwane City Aktiv 107 / 109 40% 3 08.02.2027 -
James Dornelly Peterborough United Aktiv 104 / 102 40% 1 08.02.2027 -
Chemsdine Talbi Sunderland Aktiv 144 / 148 40% 1 08.02.2027 -
Radek Vítek Middlesbrough Aktiv 132 / 137 40% 1 07.02.2027 -
Daniel Awuni Aduana Stars Aktiv 104 / 103 40% 1 07.02.2027 -
Cauan Baptistella Dynamo Kyiv Aktiv 100 / 104 40% 2 06.02.2027 -
Oswin Appollis Orlando Pirates Aktiv 112 / 118 40% 1 04.02.2027 -
Rivaldo Mkhize Black Aces Aktiv 88 / 84 40% 1 02.02.2027 -
Peter Amidu Acquah Asante Kotoko Aktiv 85 / 101 40% 1 02.02.2027 -
Sergio Barlocco Trento Aktiv 101 / 104 40% 2 31.01.2027 -
Vadym Yushchyshyn UCSA Aktiv 82 / 84 40% 1 31.01.2027 -
Nana Nuhu WAFA Aktiv 98 / 102 40% 2 29.01.2027 -
Gilbert Bandama Hapoel Kfar Saba Aktiv 114 / 112 40% 1 29.01.2027 -
Hakim Sulemana Ashanti Gold Aktiv 96 / 95 40% 2 26.01.2027 -
Shea Lacey Crystal Palace Aktiv 118 / 133 40% 1 26.01.2027 -
Percy Phiri Ajax Cape Town Aktiv 104 / 114 40% 1 26.01.2027 -
Lwanda Mbanjwa Platinum Stars Aktiv 95 / 104 40% 2 24.01.2027 -
Bruno Gomes Valletta Aktiv 96 / 101 40% 1 24.01.2027 -
Araphat Mohammed Ashanti Gold Aktiv 89 / 97 40% 1 23.01.2027 -
Francesco D'Alterio Ternana Aktiv 105 / 113 40% 1 21.01.2027 -
Gladson Amoah Liberty Professionals Aktiv 104 / 86 40% 1 21.01.2027 -
Patrick Schmidt Tarxien Rainbows Aktiv 105 / 107 40% 1 19.01.2027 -
Wandile Duba ASO Chlef Aktiv 105 / 108 40% 1 18.01.2027 -
Asanele Bonani Chippa United Aktiv 75 / 86 40% 1 16.01.2027 -
Sindre Walle Egeli Udinese Aktiv 135 / 140 40% 1 15.01.2027 -
Cemran Dansin Orlando Pirates Aktiv 102 / 116 40% 2 12.01.2027 -
Simphiwe Selepe Orlando Pirates Aktiv 121 / 123 40% 2 12.01.2027 -
Gladson Adjei WAFA Aktiv 82 / 75 40% 1 12.01.2027 -
Martin Velichkov Lokomotiv Sofia Aktiv 101 / 107 40% 1 10.01.2027 -
Lucas Ferreira Shakhtar Aktiv 107 / 130 40% 1 08.01.2027 -
Mohammed Galadima Hapoel Kfar Saba Aktiv 91 / 82 40% 1 05.01.2027 -
Yuki Ohashi Hapoel Tel Aviv Aktiv 124 / 125 40% 1 03.01.2027 -
Uroš Đuranović Sliema Wanderers Aktiv 96 / 105 40% 1 02.01.2027 -
Mathys Tel Tottenham Aktiv 139 / 153 40% 2 30.12.2026 -
Arsen Adamov Akhmat Grozny Aktiv 134 / 117 40% 1 28.12.2026 -
Ilja Vakhania Krasnodar Aktiv 113 / 113 40% 1 28.12.2026 -
Harvey Vale Queens Park Rangers Aktiv 123 / 122 40% 2 27.12.2026 -
Rubens Dinamo Moscow Aktiv 123 / 125 40% 2 24.12.2026 -
David Ozoh Derby County Aktiv 115 / 124 40% 4 20.12.2026 -
Alexandr Chernikov Krasnodar Aktiv 130 / 127 40% 1 20.12.2026 -
Luke Baartman Ajax Cape Town Aktiv 101 / 106 40% 1 19.12.2026 -
Kirill Glebov CSKA Moscow Aktiv 125 / 130 40% 5 18.12.2026 -
Gedson Fernandes Spartak Moscow Aktiv 143 / 134 40% 2 16.12.2026 -
Oliver Arblaster Sheffield United Aktiv 127 / 126 40% 1 12.12.2026 -
Danil Glebov Dinamo Moscow Aktiv 142 / 132 40% 1 12.12.2026 -
Facundo Mura Inter Miami CF Aktiv 117 / 125 40% 1 08.12.2026 -
Csanád Vilmos Dénes Debrecen Aktiv 114 / 102 40% 1 09.11.2026 -
Benjamin Jack Sliema Wanderers Aktiv 82 / 81 40% 1 08.11.2026 -
Nikita Krivtsov Krasnodar Aktiv 121 / 127 40% 1 04.11.2026 -
Aldair Faustino Levski Aktiv 123 / 128 40% 1 02.11.2026 -
Jayden Bogle Leeds United Aktiv 129 / 139 40% 1 02.11.2026 -
Tomás Aranda Boca Juniors Aktiv 121 / 114 40% 2 31.10.2026 -
Artem Slesar Zorya Aktiv 118 / 120 40% 1 31.10.2026 -
Themba Dala Black Aces Aktiv 118 / 110 40% 2 30.10.2026 -
Romelle Donovan Brentford Aktiv 111 / 130 40% 3 29.10.2026 -
Dean Jali Platinum Stars Aktiv 81 / 96 40% 1 29.10.2026 -
Maren Kefas Plateau United Aktiv 79 / 86 40% 3 24.10.2026 -
Roman Dixon Walsall Aktiv 102 / 107 40% 1 23.10.2026 -
Gomolemo Kekana Maritzburg United Aktiv 89 / 100 40% 2 12.10.2026 -
Abubakar Garba Nasarawa United Aktiv 102 / 91 40% 1 08.10.2026 -
Mustapha Umar Kano Pillars Aktiv 99 / 100 40% 1 07.10.2026 -
Gady Beyuku Blackburn Rovers Aktiv 113 / 125 40% 2 06.10.2026 -
Hassan Beja AFC Leopards Aktiv 71 / 85 40% 1 05.10.2026 -
Darren Yapi Colorado Rapids Aktiv 109 / 112 40% 1 02.10.2026 -
Clinton Jephta Niger Tornadoes Aktiv 96 / 96 40% 1 02.10.2026 -
Ismail Mukhtar El-Kanemi Warriors Aktiv 99 / 81 40% 2 30.09.2026 -
Sadiq Auwal Niger Tornadoes Aktiv 81 / 95 40% 1 30.09.2026 -
Yahaya Ibrahim Plateau United Aktiv 80 / 83 40% 1 28.09.2026 -
Wisdom Udom Bendel Insurance Aktiv 83 / 90 40% 1 28.09.2026 -
Law McCabe Middlesbrough Aktiv 110 / 118 40% 1 23.09.2026 -
Akeel Higgins West Bromwich Albion Aktiv 89 / 94 40% 1 22.09.2026 -
Raul Gustavo New York City Aktiv 113 / 113 40% 1 18.09.2026 -
Juan Mosquera Portland Timbers Aktiv 118 / 117 40% 1 13.09.2026 -
Yannick Bright Inter Miami CF Aktiv 113 / 123 40% 1 11.09.2026 -
Mbekezeli Mbokazi Chicago Fire Aktiv 129 / 123 40% 1 11.09.2026 -
Facundo Miño Deportivo Riestra Aktiv 122 / 123 40% 1 09.09.2026 -
Iliya Gruev Leeds United Aktiv 133 / 132 40% 1 09.09.2026 -
Cole Bassett Portland Timbers Aktiv 128 / 125 40% 1 07.09.2026 -